Morrill, Nebraska
Current Conditions -  °F | °C
As of 8:53 PM on Tuesday 25 Nov 2014 (Local Time) from KTOR Reporting Station
Overcast Overcast  
Wind Chill: 17°   Ceiling: 8500
Heat Index: 31°   Visibility: 10mi
Dew Point: 27°   Wind: 24mph
Humidity: 85%   Direction: 330°NNW
Pressure: 30.04"   Gusts: 33mph
Location:  41.96°N, 103.93°W
Report Text: KTOR 260353Z AUTO 33021G29KT 10SM FEW016 OVC085 M01/M03 A3004 RMK AO2 PK WND 34029/0348 SNB03E12 SLP190 P0000 T10061028
Loading
Personal Weather Stations






























Interactive Weather Map New forecast layout! Learn more

10-Day Weather Forecast

Advertisements
Track Severe Weather on mobile